sensor_id;sensor_type;location;lat;lon;timestamp;temperature;humidity
16040;DHT22;8124;48.634;8.120;2023-08-06T00:01:16;18.90;99.90
16040;DHT22;8124;48.634;8.120;2023-08-06T00:06:23;18.90;99.90
16040;DHT22;8124;48.634;8.120;2023-08-06T00:11:26;18.90;99.90
16040;DHT22;8124;48.634;8.120;2023-08-06T00:16:30;19.00;99.90
16040;DHT22;8124;48.634;8.120;2023-08-06T00:21:33;18.90;99.90
16040;DHT22;8124;48.634;8.120;2023-08-06T00:26:39;19.00;99.90
16040;DHT22;8124;48.634;8.120;2023-08-06T00:31:44;18.90;99.90
16040;DHT22;8124;48.634;8.120;2023-08-06T00:36:47;18.90;99.90
16040;DHT22;8124;48.634;8.120;2023-08-06T00:41:50;18.80;99.90
16040;DHT22;8124;48.634;8.120;2023-08-06T00:46:55;18.90;99.90
16040;DHT22;8124;48.634;8.120;2023-08-06T00:51:58;18.90;99.90
16040;DHT22;8124;48.634;8.120;2023-08-06T00:57:02;18.80;99.90
16040;DHT22;8124;48.634;8.120;2023-08-06T01:02:07;18.70;99.90
16040;DHT22;8124;48.634;8.120;2023-08-06T01:07:19;18.70;99.90
16040;DHT22;8124;48.634;8.120;2023-08-06T01:12:32;18.70;99.90
16040;DHT22;8124;48.634;8.120;2023-08-06T01:17:37;18.70;99.90
16040;DHT22;8124;48.634;8.120;2023-08-06T01:22:43;18.80;99.90
16040;DHT22;8124;48.634;8.120;2023-08-06T01:27:48;18.80;99.90
16040;DHT22;8124;48.634;8.120;2023-08-06T01:32:58;18.80;99.90
16040;DHT22;8124;48.634;8.120;2023-08-06T01:38:04;18.80;99.90
16040;DHT22;8124;48.634;8.120;2023-08-06T01:43:07;18.70;99.90
16040;DHT22;8124;48.634;8.120;2023-08-06T01:48:10;18.70;99.90
16040;DHT22;8124;48.634;8.120;2023-08-06T01:53:14;18.70;99.90
16040;DHT22;8124;48.634;8.120;2023-08-06T01:58:17;18.60;99.90
16040;DHT22;8124;48.634;8.120;2023-08-06T02:03:20;18.60;99.90
16040;DHT22;8124;48.634;8.120;2023-08-06T02:08:25;18.70;99.90
16040;DHT22;8124;48.634;8.120;2023-08-06T02:13:28;18.60;99.90
16040;DHT22;8124;48.634;8.120;2023-08-06T02:18:31;18.50;99.90
16040;DHT22;8124;48.634;8.120;2023-08-06T02:23:35;18.50;99.90
16040;DHT22;8124;48.634;8.120;2023-08-06T02:28:38;18.30;99.90
16040;DHT22;8124;48.634;8.120;2023-08-06T02:33:41;18.10;99.90
16040;DHT22;8124;48.634;8.120;2023-08-06T02:38:46;18.00;99.90
16040;DHT22;8124;48.634;8.120;2023-08-06T02:43:49;18.30;99.90
16040;DHT22;8124;48.634;8.120;2023-08-06T02:48:52;18.20;99.90
16040;DHT22;8124;48.634;8.120;2023-08-06T02:53:57;17.90;99.90
16040;DHT22;8124;48.634;8.120;2023-08-06T02:59:00;18.00;99.90
16040;DHT22;8124;48.634;8.120;2023-08-06T03:04:13;17.90;99.90
16040;DHT22;8124;48.634;8.120;2023-08-06T03:09:20;18.00;99.90
16040;DHT22;8124;48.634;8.120;2023-08-06T03:14:24;17.80;99.90
16040;DHT22;8124;48.634;8.120;2023-08-06T03:19:27;17.80;99.90
16040;DHT22;8124;48.634;8.120;2023-08-06T03:24:32;17.80;99.90
16040;DHT22;8124;48.634;8.120;2023-08-06T03:29:36;17.70;99.90
16040;DHT22;8124;48.634;8.120;2023-08-06T03:34:39;17.70;99.90
16040;DHT22;8124;48.634;8.120;2023-08-06T03:39:44;17.70;99.90
16040;DHT22;8124;48.634;8.120;2023-08-06T03:44:47;17.70;99.90
16040;DHT22;8124;48.634;8.120;2023-08-06T03:49:50;17.60;99.90
16040;DHT22;8124;48.634;8.120;2023-08-06T03:54:57;17.60;99.90
16040;DHT22;8124;48.634;8.120;2023-08-06T04:00:00;17.60;99.90
16040;DHT22;8124;48.634;8.120;2023-08-06T04:05:04;17.60;99.90
16040;DHT22;8124;48.634;8.120;2023-08-06T04:10:09;17.40;99.90
16040;DHT22;8124;48.634;8.120;2023-08-06T04:15:12;17.30;99.90
16040;DHT22;8124;48.634;8.120;2023-08-06T04:20:15;17.30;99.90
16040;DHT22;8124;48.634;8.120;2023-08-06T04:25:19;17.20;99.90
16040;DHT22;8124;48.634;8.120;2023-08-06T04:30:23;17.20;99.90
16040;DHT22;8124;48.634;8.120;2023-08-06T04:35:26;17.10;99.90
16040;DHT22;8124;48.634;8.120;2023-08-06T04:40:33;17.20;99.90
16040;DHT22;8124;48.634;8.120;2023-08-06T04:45:36;17.20;99.90
16040;DHT22;8124;48.634;8.120;2023-08-06T04:50:43;17.10;99.90
16040;DHT22;8124;48.634;8.120;2023-08-06T04:55:47;17.00;99.90
16040;DHT22;8124;48.634;8.120;2023-08-06T05:00:50;16.90;99.90
16040;DHT22;8124;48.634;8.120;2023-08-06T05:05:53;16.90;99.90
16040;DHT22;8124;48.634;8.120;2023-08-06T05:10:58;16.80;99.90
16040;DHT22;8124;48.634;8.120;2023-08-06T05:16:01;16.90;99.90
16040;DHT22;8124;48.634;8.120;2023-08-06T05:21:04;16.70;99.90
16040;DHT22;8124;48.634;8.120;2023-08-06T05:26:08;16.70;99.90
16040;DHT22;8124;48.634;8.120;2023-08-06T05:31:11;16.70;99.90
16040;DHT22;8124;48.634;8.120;2023-08-06T05:36:14;16.70;99.90
16040;DHT22;8124;48.634;8.120;2023-08-06T05:41:20;16.60;99.90
16040;DHT22;8124;48.634;8.120;2023-08-06T05:46:23;16.70;99.90
16040;DHT22;8124;48.634;8.120;2023-08-06T05:51:27;16.60;99.90
16040;DHT22;8124;48.634;8.120;2023-08-06T05:56:32;16.70;99.90
16040;DHT22;8124;48.634;8.120;2023-08-06T06:01:35;16.50;99.90
16040;DHT22;8124;48.634;8.120;2023-08-06T06:06:38;16.40;99.90
16040;DHT22;8124;48.634;8.120;2023-08-06T06:11:42;16.30;99.90
16040;DHT22;8124;48.634;8.120;2023-08-06T06:16:45;16.40;99.90
16040;DHT22;8124;48.634;8.120;2023-08-06T06:21:48;16.40;99.90
16040;DHT22;8124;48.634;8.120;2023-08-06T06:26:53;16.40;99.90
16040;DHT22;8124;48.634;8.120;2023-08-06T06:31:56;16.40;99.90
16040;DHT22;8124;48.634;8.120;2023-08-06T06:36:59;16.30;99.90
16040;DHT22;8124;48.634;8.120;2023-08-06T06:42:04;16.30;99.90
16040;DHT22;8124;48.634;8.120;2023-08-06T06:47:12;16.30;99.90
16040;DHT22;8124;48.634;8.120;2023-08-06T06:52:15;16.30;99.90
16040;DHT22;8124;48.634;8.120;2023-08-06T06:57:19;16.30;99.90
16040;DHT22;8124;48.634;8.120;2023-08-06T07:02:28;16.30;99.90
16040;DHT22;8124;48.634;8.120;2023-08-06T07:07:32;16.30;99.90
16040;DHT22;8124;48.634;8.120;2023-08-06T07:12:36;16.40;99.90
16040;DHT22;8124;48.634;8.120;2023-08-06T07:17:39;16.30;99.90
16040;DHT22;8124;48.634;8.120;2023-08-06T07:22:43;16.40;99.90
16040;DHT22;8124;48.634;8.120;2023-08-06T07:27:47;16.20;99.90
16040;DHT22;8124;48.634;8.120;2023-08-06T07:32:50;16.20;99.90
16040;DHT22;8124;48.634;8.120;2023-08-06T07:37:53;16.30;99.90
16040;DHT22;8124;48.634;8.120;2023-08-06T07:42:58;16.20;99.90
16040;DHT22;8124;48.634;8.120;2023-08-06T07:48:01;16.30;99.90
16040;DHT22;8124;48.634;8.120;2023-08-06T07:53:04;16.30;99.90
16040;DHT22;8124;48.634;8.120;2023-08-06T07:58:08;16.30;99.90
16040;DHT22;8124;48.634;8.120;2023-08-06T08:03:12;16.20;99.90
16040;DHT22;8124;48.634;8.120;2023-08-06T08:08:16;16.20;99.90
16040;DHT22;8124;48.634;8.120;2023-08-06T08:13:20;16.30;99.90
16040;DHT22;8124;48.634;8.120;2023-08-06T08:18:23;16.40;99.90
16040;DHT22;8124;48.634;8.120;2023-08-06T08:23:26;16.40;99.90
16040;DHT22;8124;48.634;8.120;2023-08-06T08:28:31;16.40;99.90
16040;DHT22;8124;48.634;8.120;2023-08-06T08:33:34;16.40;99.90
16040;DHT22;8124;48.634;8.120;2023-08-06T08:38:37;16.30;99.90
16040;DHT22;8124;48.634;8.120;2023-08-06T08:43:42;16.30;99.90
16040;DHT22;8124;48.634;8.120;2023-08-06T08:48:45;16.30;99.90
16040;DHT22;8124;48.634;8.120;2023-08-06T08:53:49;16.40;99.90
16040;DHT22;8124;48.634;8.120;2023-08-06T08:58:58;16.40;99.90
16040;DHT22;8124;48.634;8.120;2023-08-06T09:04:02;16.30;99.90
16040;DHT22;8124;48.634;8.120;2023-08-06T09:09:08;16.30;99.90
16040;DHT22;8124;48.634;8.120;2023-08-06T09:14:12;16.30;99.90
16040;DHT22;8124;48.634;8.120;2023-08-06T09:19:15;16.20;99.90
16040;DHT22;8124;48.634;8.120;2023-08-06T09:24:19;16.30;99.90
16040;DHT22;8124;48.634;8.120;2023-08-06T09:29:23;16.20;99.90
16040;DHT22;8124;48.634;8.120;2023-08-06T09:34:26;16.30;99.90
16040;DHT22;8124;48.634;8.120;2023-08-06T09:39:30;16.40;99.90
16040;DHT22;8124;48.634;8.120;2023-08-06T09:44:35;16.30;99.90
16040;DHT22;8124;48.634;8.120;2023-08-06T09:49:42;16.50;99.90
16040;DHT22;8124;48.634;8.120;2023-08-06T09:54:47;16.50;99.90
16040;DHT22;8124;48.634;8.120;2023-08-06T09:59:52;16.60;99.90
16040;DHT22;8124;48.634;8.120;2023-08-06T10:04:57;16.60;99.90
16040;DHT22;8124;48.634;8.120;2023-08-06T10:10:02;16.80;99.90
16040;DHT22;8124;48.634;8.120;2023-08-06T10:15:09;16.80;99.90
16040;DHT22;8124;48.634;8.120;2023-08-06T10:20:13;16.70;99.90
16040;DHT22;8124;48.634;8.120;2023-08-06T10:25:18;16.80;99.90
16040;DHT22;8124;48.634;8.120;2023-08-06T10:30:23;16.80;99.90
16040;DHT22;8124;48.634;8.120;2023-08-06T10:35:31;16.90;99.90
16040;DHT22;8124;48.634;8.120;2023-08-06T10:40:34;16.80;99.90
16040;DHT22;8124;48.634;8.120;2023-08-06T10:45:49;16.80;99.90
16040;DHT22;8124;48.634;8.120;2023-08-06T10:50:53;16.50;99.90
16040;DHT22;8124;48.634;8.120;2023-08-06T10:55:56;16.50;99.90
16040;DHT22;8124;48.634;8.120;2023-08-06T11:01:00;16.50;99.90
16040;DHT22;8124;48.634;8.120;2023-08-06T11:06:03;16.50;99.90
16040;DHT22;8124;48.634;8.120;2023-08-06T11:11:10;16.50;99.90
16040;DHT22;8124;48.634;8.120;2023-08-06T11:16:18;16.20;99.90
16040;DHT22;8124;48.634;8.120;2023-08-06T11:21:22;16.40;99.90
16040;DHT22;8124;48.634;8.120;2023-08-06T11:26:26;16.40;99.90
16040;DHT22;8124;48.634;8.120;2023-08-06T11:31:31;16.40;99.90
16040;DHT22;8124;48.634;8.120;2023-08-06T11:36:40;16.50;99.90
16040;DHT22;8124;48.634;8.120;2023-08-06T11:41:43;16.40;99.90
16040;DHT22;8124;48.634;8.120;2023-08-06T11:46:51;16.40;99.90
16040;DHT22;8124;48.634;8.120;2023-08-06T11:51:57;16.30;99.90
16040;DHT22;8124;48.634;8.120;2023-08-06T11:57:00;16.60;99.90
16040;DHT22;8124;48.634;8.120;2023-08-06T12:02:08;16.60;99.90
16040;DHT22;8124;48.634;8.120;2023-08-06T12:07:12;16.50;99.90
16040;DHT22;8124;48.634;8.120;2023-08-06T12:12:15;16.60;99.90
16040;DHT22;8124;48.634;8.120;2023-08-06T12:17:19;16.70;99.90
16040;DHT22;8124;48.634;8.120;2023-08-06T12:22:22;16.90;99.90
16040;DHT22;8124;48.634;8.120;2023-08-06T12:27:25;17.00;99.90
16040;DHT22;8124;48.634;8.120;2023-08-06T12:32:30;17.20;99.90
16040;DHT22;8124;48.634;8.120;2023-08-06T12:37:33;17.00;99.90
16040;DHT22;8124;48.634;8.120;2023-08-06T12:42:36;17.00;99.90
16040;DHT22;8124;48.634;8.120;2023-08-06T12:47:41;17.10;99.90
16040;DHT22;8124;48.634;8.120;2023-08-06T12:52:44;17.30;99.90
16040;DHT22;8124;48.634;8.120;2023-08-06T12:57:47;17.30;99.90
16040;DHT22;8124;48.634;8.120;2023-08-06T13:03:01;17.20;99.90
16040;DHT22;8124;48.634;8.120;2023-08-06T13:08:04;17.40;99.90
16040;DHT22;8124;48.634;8.120;2023-08-06T13:13:07;17.30;99.90
16040;DHT22;8124;48.634;8.120;2023-08-06T13:18:13;17.40;99.90
16040;DHT22;8124;48.634;8.120;2023-08-06T13:23:16;17.30;99.90
16040;DHT22;8124;48.634;8.120;2023-08-06T13:28:19;17.20;99.90
16040;DHT22;8124;48.634;8.120;2023-08-06T13:33:23;17.10;99.90
16040;DHT22;8124;48.634;8.120;2023-08-06T13:38:28;17.00;99.90
16040;DHT22;8124;48.634;8.120;2023-08-06T13:43:31;17.00;99.90
16040;DHT22;8124;48.634;8.120;2023-08-06T13:48:35;17.10;99.90
16040;DHT22;8124;48.634;8.120;2023-08-06T13:53:38;17.40;99.90
16040;DHT22;8124;48.634;8.120;2023-08-06T13:58:41;17.40;99.90
16040;DHT22;8124;48.634;8.120;2023-08-06T14:03:46;17.60;99.90
16040;DHT22;8124;48.634;8.120;2023-08-06T14:08:49;17.60;99.90
16040;DHT22;8124;48.634;8.120;2023-08-06T14:13:52;17.50;99.90
16040;DHT22;8124;48.634;8.120;2023-08-06T14:18:57;17.20;99.90
16040;DHT22;8124;48.634;8.120;2023-08-06T14:23:59;17.50;99.90
16040;DHT22;8124;48.634;8.120;2023-08-06T14:29:03;17.60;99.90
16040;DHT22;8124;48.634;8.120;2023-08-06T14:34:07;17.70;99.90
16040;DHT22;8124;48.634;8.120;2023-08-06T14:39:10;17.70;99.90
16040;DHT22;8124;48.634;8.120;2023-08-06T14:44:13;17.60;99.90
16040;DHT22;8124;48.634;8.120;2023-08-06T14:49:17;17.70;99.90
16040;DHT22;8124;48.634;8.120;2023-08-06T14:54:20;17.90;99.90
16040;DHT22;8124;48.634;8.120;2023-08-06T14:59:23;17.70;99.90
16040;DHT22;8124;48.634;8.120;2023-08-06T15:04:27;17.90;99.90
16040;DHT22;8124;48.634;8.120;2023-08-06T15:09:31;17.90;99.90
16040;DHT22;8124;48.634;8.120;2023-08-06T15:14:54;17.40;99.90
16040;DHT22;8124;48.634;8.120;2023-08-06T15:19:59;17.40;99.90
16040;DHT22;8124;48.634;8.120;2023-08-06T15:25:03;17.50;99.90
16040;DHT22;8124;48.634;8.120;2023-08-06T15:30:07;17.50;99.90
16040;DHT22;8124;48.634;8.120;2023-08-06T15:35:11;17.50;99.90
16040;DHT22;8124;48.634;8.120;2023-08-06T15:40:14;17.30;99.90
16040;DHT22;8124;48.634;8.120;2023-08-06T15:45:17;17.20;99.90
16040;DHT22;8124;48.634;8.120;2023-08-06T15:50:22;17.20;99.90
16040;DHT22;8124;48.634;8.120;2023-08-06T15:55:25;17.20;99.90
16040;DHT22;8124;48.634;8.120;2023-08-06T16:00:28;17.10;99.90
16040;DHT22;8124;48.634;8.120;2023-08-06T16:05:34;17.20;99.90
16040;DHT22;8124;48.634;8.120;2023-08-06T16:10:37;17.20;99.90
16040;DHT22;8124;48.634;8.120;2023-08-06T16:15:43;17.30;99.90
16040;DHT22;8124;48.634;8.120;2023-08-06T17:59:58;17.40;99.90
16040;DHT22;8124;48.634;8.120;2023-08-06T18:05:12;17.30;99.90
16040;DHT22;8124;48.634;8.120;2023-08-06T18:10:17;17.40;99.90
16040;DHT22;8124;48.634;8.120;2023-08-06T18:15:21;17.30;99.90
16040;DHT22;8124;48.634;8.120;2023-08-06T18:20:24;17.40;99.90
16040;DHT22;8124;48.634;8.120;2023-08-06T18:25:28;17.30;99.90
16040;DHT22;8124;48.634;8.120;2023-08-06T18:30:32;17.30;99.90
16040;DHT22;8124;48.634;8.120;2023-08-06T18:35:39;17.20;99.90
16040;DHT22;8124;48.634;8.120;2023-08-06T18:40:42;17.30;99.90
16040;DHT22;8124;48.634;8.120;2023-08-06T18:45:47;17.20;99.90
16040;DHT22;8124;48.634;8.120;2023-08-06T18:50:50;17.00;99.90
16040;DHT22;8124;48.634;8.120;2023-08-06T18:55:54;17.10;99.90
16040;DHT22;8124;48.634;8.120;2023-08-06T19:00:59;17.00;99.90
16040;DHT22;8124;48.634;8.120;2023-08-06T19:06:02;17.00;99.90
16040;DHT22;8124;48.634;8.120;2023-08-06T19:11:07;16.90;99.90
16040;DHT22;8124;48.634;8.120;2023-08-06T19:16:12;16.90;99.90
16040;DHT22;8124;48.634;8.120;2023-08-06T19:21:15;16.90;99.90
16040;DHT22;8124;48.634;8.120;2023-08-06T19:26:18;16.90;99.90
16040;DHT22;8124;48.634;8.120;2023-08-06T19:31:22;16.80;99.90
16040;DHT22;8124;48.634;8.120;2023-08-06T19:36:25;16.70;99.90
16040;DHT22;8124;48.634;8.120;2023-08-06T19:41:29;16.60;99.90
16040;DHT22;8124;48.634;8.120;2023-08-06T19:46:33;16.60;99.90
16040;DHT22;8124;48.634;8.120;2023-08-06T19:51:36;16.30;99.90
16040;DHT22;8124;48.634;8.120;2023-08-06T19:56:41;16.30;99.90
16040;DHT22;8124;48.634;8.120;2023-08-06T20:01:46;16.30;99.90
16040;DHT22;8124;48.634;8.120;2023-08-06T20:06:52;16.30;99.90
16040;DHT22;8124;48.634;8.120;2023-08-06T20:11:55;16.20;99.90
16040;DHT22;8124;48.634;8.120;2023-08-06T20:17:00;16.20;99.90
16040;DHT22;8124;48.634;8.120;2023-08-06T20:22:05;16.20;99.90
16040;DHT22;8124;48.634;8.120;2023-08-06T20:27:08;16.30;99.90
16040;DHT22;8124;48.634;8.120;2023-08-06T20:32:12;16.40;99.90
16040;DHT22;8124;48.634;8.120;2023-08-06T20:37:15;16.20;99.90
16040;DHT22;8124;48.634;8.120;2023-08-06T20:42:19;16.20;99.90
16040;DHT22;8124;48.634;8.120;2023-08-06T20:47:23;16.30;99.90
16040;DHT22;8124;48.634;8.120;2023-08-06T20:52:26;16.20;99.90
16040;DHT22;8124;48.634;8.120;2023-08-06T20:57:30;16.20;99.90
16040;DHT22;8124;48.634;8.120;2023-08-06T21:02:34;16.10;99.90
16040;DHT22;8124;48.634;8.120;2023-08-06T21:07:37;16.00;99.90
16040;DHT22;8124;48.634;8.120;2023-08-06T21:12:40;16.00;99.90
16040;DHT22;8124;48.634;8.120;2023-08-06T21:17:44;15.90;99.90
16040;DHT22;8124;48.634;8.120;2023-08-06T21:22:47;15.90;99.90
16040;DHT22;8124;48.634;8.120;2023-08-06T21:27:51;15.80;99.90
16040;DHT22;8124;48.634;8.120;2023-08-06T21:32:55;16.00;99.90
16040;DHT22;8124;48.634;8.120;2023-08-06T21:37:58;15.90;99.90
16040;DHT22;8124;48.634;8.120;2023-08-06T21:43:01;15.90;99.90
16040;DHT22;8124;48.634;8.120;2023-08-06T21:48:05;15.80;99.90
16040;DHT22;8124;48.634;8.120;2023-08-06T21:53:08;15.80;99.90
16040;DHT22;8124;48.634;8.120;2023-08-06T21:58:11;15.80;99.90
16040;DHT22;8124;48.634;8.120;2023-08-06T22:03:16;15.70;99.90
16040;DHT22;8124;48.634;8.120;2023-08-06T22:08:19;15.70;99.90
16040;DHT22;8124;48.634;8.120;2023-08-06T22:13:22;15.50;99.90
16040;DHT22;8124;48.634;8.120;2023-08-06T22:18:26;15.50;99.90
16040;DHT22;8124;48.634;8.120;2023-08-06T22:23:30;15.30;99.90
16040;DHT22;8124;48.634;8.120;2023-08-06T22:28:33;15.30;99.90
16040;DHT22;8124;48.634;8.120;2023-08-06T22:33:40;15.30;99.90
16040;DHT22;8124;48.634;8.120;2023-08-06T22:38:43;15.30;99.90
16040;DHT22;8124;48.634;8.120;2023-08-06T22:43:46;15.40;99.90
16040;DHT22;8124;48.634;8.120;2023-08-06T22:48:50;15.40;99.90
16040;DHT22;8124;48.634;8.120;2023-08-06T22:53:53;15.40;99.90
16040;DHT22;8124;48.634;8.120;2023-08-06T22:58:56;15.50;99.90
16040;DHT22;8124;48.634;8.120;2023-08-06T23:04:02;15.50;99.90
16040;DHT22;8124;48.634;8.120;2023-08-06T23:09:06;15.40;99.90
16040;DHT22;8124;48.634;8.120;2023-08-06T23:14:09;15.40;99.90
16040;DHT22;8124;48.634;8.120;2023-08-06T23:19:13;15.40;99.90
16040;DHT22;8124;48.634;8.120;2023-08-06T23:24:16;15.40;99.90
16040;DHT22;8124;48.634;8.120;2023-08-06T23:29:19;15.40;99.90
16040;DHT22;8124;48.634;8.120;2023-08-06T23:34:24;15.40;99.90
16040;DHT22;8124;48.634;8.120;2023-08-06T23:39:27;15.40;99.90
16040;DHT22;8124;48.634;8.120;2023-08-06T23:44:29;15.40;99.90
16040;DHT22;8124;48.634;8.120;2023-08-06T23:49:34;15.40;99.90
16040;DHT22;8124;48.634;8.120;2023-08-06T23:54:37;15.60;99.90
16040;DHT22;8124;48.634;8.120;2023-08-06T23:59:41;15.60;99.90
